sensor_id;sensor_type;location;lat;lon;timestamp;P1;durP1;ratioP1;P2;durP2;ratioP2
61739;SDS011;47645;45.288;12.038;2023-03-11T00:00:18;6.6;;;3.7;;
61739;SDS011;47645;45.288;12.038;2023-03-11T00:10:19;13.1;;;7.6;;
61739;SDS011;47645;45.288;12.038;2023-03-11T00:20:19;10.9;;;5.8;;
61739;SDS011;47645;45.288;12.038;2023-03-11T00:30:19;21.7;;;12.6;;
61739;SDS011;47645;45.288;12.038;2023-03-11T00:40:21;28.9;;;15.7;;
61739;SDS011;47645;45.288;12.038;2023-03-11T00:50:22;31.0;;;19.1;;
61739;SDS011;47645;45.288;12.038;2023-03-11T01:00:22;23.6;;;12.8;;
61739;SDS011;47645;45.288;12.038;2023-03-11T01:10:22;27.7;;;15.5;;
61739;SDS011;47645;45.288;12.038;2023-03-11T01:20:23;14.5;;;8.6;;
61739;SDS011;47645;45.288;12.038;2023-03-11T01:30:24;17.5;;;10.1;;
61739;SDS011;47645;45.288;12.038;2023-03-11T01:40:26;22.0;;;11.6;;
61739;SDS011;47645;45.288;12.038;2023-03-11T01:50:26;10.3;;;6.6;;
61739;SDS011;47645;45.288;12.038;2023-03-11T02:00:25;8.8;;;4.3;;
61739;SDS011;47645;45.288;12.038;2023-03-11T02:10:26;9.5;;;4.3;;
61739;SDS011;47645;45.288;12.038;2023-03-11T02:20:31;8.4;;;3.1;;
61739;SDS011;47645;45.288;12.038;2023-03-11T02:30:27;7.7;;;3.3;;
61739;SDS011;47645;45.288;12.038;2023-03-11T02:40:35;6.6;;;3.4;;
61739;SDS011;47645;45.288;12.038;2023-03-11T02:50:28;7.0;;;3.0;;
61739;SDS011;47645;45.288;12.038;2023-03-11T03:00:29;4.7;;;2.8;;
61739;SDS011;47645;45.288;12.038;2023-03-11T03:10:30;9.7;;;4.1;;
61739;SDS011;47645;45.288;12.038;2023-03-11T03:20:30;6.8;;;3.2;;
61739;SDS011;47645;45.288;12.038;2023-03-11T03:30:31;7.5;;;3.6;;
61739;SDS011;47645;45.288;12.038;2023-03-11T03:40:32;12.4;;;5.2;;
61739;SDS011;47645;45.288;12.038;2023-03-11T03:50:32;6.3;;;3.3;;
61739;SDS011;47645;45.288;12.038;2023-03-11T04:00:33;8.2;;;3.8;;
61739;SDS011;47645;45.288;12.038;2023-03-11T04:10:33;6.0;;;3.6;;
61739;SDS011;47645;45.288;12.038;2023-03-11T04:20:34;6.1;;;3.6;;
61739;SDS011;47645;45.288;12.038;2023-03-11T04:30:34;13.1;;;6.7;;
61739;SDS011;47645;45.288;12.038;2023-03-11T04:40:35;17.0;;;9.6;;
61739;SDS011;47645;45.288;12.038;2023-03-11T04:50:36;20.5;;;8.9;;
61739;SDS011;47645;45.288;12.038;2023-03-11T05:00:36;15.1;;;8.7;;
61739;SDS011;47645;45.288;12.038;2023-03-11T05:10:38;14.9;;;9.2;;
61739;SDS011;47645;45.288;12.038;2023-03-11T05:20:37;16.1;;;10.4;;
61739;SDS011;47645;45.288;12.038;2023-03-11T05:30:38;18.2;;;10.2;;
61739;SDS011;47645;45.288;12.038;2023-03-11T05:40:38;20.6;;;10.6;;
61739;SDS011;47645;45.288;12.038;2023-03-11T05:50:39;16.1;;;10.2;;
61739;SDS011;47645;45.288;12.038;2023-03-11T06:00:39;17.3;;;9.3;;
61739;SDS011;47645;45.288;12.038;2023-03-11T06:10:40;24.4;;;12.7;;
61739;SDS011;47645;45.288;12.038;2023-03-11T06:20:41;23.4;;;12.6;;
61739;SDS011;47645;45.288;12.038;2023-03-11T06:30:41;25.7;;;14.2;;
61739;SDS011;47645;45.288;12.038;2023-03-11T06:40:42;25.4;;;12.9;;
61739;SDS011;47645;45.288;12.038;2023-03-11T06:50:42;21.1;;;12.3;;
61739;SDS011;47645;45.288;12.038;2023-03-11T07:00:43;16.5;;;10.6;;
61739;SDS011;47645;45.288;12.038;2023-03-11T07:10:43;28.3;;;13.9;;
61739;SDS011;47645;45.288;12.038;2023-03-11T07:20:43;26.1;;;13.8;;
61739;SDS011;47645;45.288;12.038;2023-03-11T07:30:45;26.0;;;16.0;;
61739;SDS011;47645;45.288;12.038;2023-03-11T07:40:45;25.6;;;15.5;;
61739;SDS011;47645;45.288;12.038;2023-03-11T07:50:45;29.3;;;17.7;;
61739;SDS011;47645;45.288;12.038;2023-03-11T08:00:46;31.8;;;18.4;;
61739;SDS011;47645;45.288;12.038;2023-03-11T08:10:46;29.1;;;15.9;;
61739;SDS011;47645;45.288;12.038;2023-03-11T08:20:47;28.2;;;15.2;;
61739;SDS011;47645;45.288;12.038;2023-03-11T08:30:47;26.7;;;16.0;;
61739;SDS011;47645;45.288;12.038;2023-03-11T08:40:48;25.4;;;13.4;;
61739;SDS011;47645;45.288;12.038;2023-03-11T08:50:48;27.9;;;13.1;;
61739;SDS011;47645;45.288;12.038;2023-03-11T09:00:49;30.0;;;16.0;;
61739;SDS011;47645;45.288;12.038;2023-03-11T09:10:50;25.2;;;13.3;;
61739;SDS011;47645;45.288;12.038;2023-03-11T09:20:50;25.9;;;12.1;;
61739;SDS011;47645;45.288;12.038;2023-03-11T09:30:51;22.8;;;11.4;;
61739;SDS011;47645;45.288;12.038;2023-03-11T09:40:55;23.0;;;12.0;;
61739;SDS011;47645;45.288;12.038;2023-03-11T09:50:53;22.9;;;11.8;;
61739;SDS011;47645;45.288;12.038;2023-03-11T10:00:53;23.2;;;10.8;;
61739;SDS011;47645;45.288;12.038;2023-03-11T10:10:55;17.3;;;8.3;;
61739;SDS011;47645;45.288;12.038;2023-03-11T10:20:56;19.0;;;8.2;;
61739;SDS011;47645;45.288;12.038;2023-03-11T10:30:56;26.2;;;10.4;;
61739;SDS011;47645;45.288;12.038;2023-03-11T10:40:57;21.0;;;8.3;;
61739;SDS011;47645;45.288;12.038;2023-03-11T10:51:00;21.4;;;10.0;;
61739;SDS011;47645;45.288;12.038;2023-03-11T11:00:59;15.2;;;6.1;;
61739;SDS011;47645;45.288;12.038;2023-03-11T11:11:00;25.3;;;11.0;;
61739;SDS011;47645;45.288;12.038;2023-03-11T11:21:01;22.3;;;10.8;;
61739;SDS011;47645;45.288;12.038;2023-03-11T11:31:02;18.3;;;10.0;;
61739;SDS011;47645;45.288;12.038;2023-03-11T11:41:02;17.8;;;9.7;;
61739;SDS011;47645;45.288;12.038;2023-03-11T11:51:05;14.7;;;9.6;;
61739;SDS011;47645;45.288;12.038;2023-03-11T12:01:08;15.7;;;6.6;;
61739;SDS011;47645;45.288;12.038;2023-03-11T12:11:05;25.5;;;11.2;;
61739;SDS011;47645;45.288;12.038;2023-03-11T12:21:09;17.2;;;10.4;;
61739;SDS011;47645;45.288;12.038;2023-03-11T12:31:08;17.1;;;8.2;;
61739;SDS011;47645;45.288;12.038;2023-03-11T12:41:22;17.4;;;11.5;;
61739;SDS011;47645;45.288;12.038;2023-03-11T12:51:36;21.5;;;15.3;;
61739;SDS011;47645;45.288;12.038;2023-03-11T13:01:14;18.1;;;10.6;;
61739;SDS011;47645;45.288;12.038;2023-03-11T13:11:45;23.3;;;15.5;;
61739;SDS011;47645;45.288;12.038;2023-03-11T13:21:35;24.4;;;16.3;;
61739;SDS011;47645;45.288;12.038;2023-03-11T13:31:15;31.5;;;23.0;;
61739;SDS011;47645;45.288;12.038;2023-03-11T13:41:15;32.2;;;20.6;;
61739;SDS011;47645;45.288;12.038;2023-03-11T13:51:15;30.8;;;19.6;;
61739;SDS011;47645;45.288;12.038;2023-03-11T14:01:16;25.8;;;17.6;;
61739;SDS011;47645;45.288;12.038;2023-03-11T14:11:17;31.9;;;22.4;;
61739;SDS011;47645;45.288;12.038;2023-03-11T14:21:19;30.0;;;18.9;;
61739;SDS011;47645;45.288;12.038;2023-03-11T14:31:28;31.9;;;20.7;;
61739;SDS011;47645;45.288;12.038;2023-03-11T14:41:20;34.2;;;22.4;;
61739;SDS011;47645;45.288;12.038;2023-03-11T14:51:22;33.5;;;23.1;;
61739;SDS011;47645;45.288;12.038;2023-03-11T15:01:23;25.2;;;17.8;;
61739;SDS011;47645;45.288;12.038;2023-03-11T15:11:24;32.4;;;21.0;;
61739;SDS011;47645;45.288;12.038;2023-03-11T15:21:25;33.6;;;22.4;;
61739;SDS011;47645;45.288;12.038;2023-03-11T15:31:31;32.0;;;22.9;;
61739;SDS011;47645;45.288;12.038;2023-03-11T15:41:27;34.0;;;25.9;;
61739;SDS011;47645;45.288;12.038;2023-03-11T15:51:28;41.4;;;27.3;;
61739;SDS011;47645;45.288;12.038;2023-03-11T16:01:29;41.5;;;27.3;;
61739;SDS011;47645;45.288;12.038;2023-03-11T16:11:32;23.9;;;15.9;;
61739;SDS011;47645;45.288;12.038;2023-03-11T16:21:32;39.5;;;26.2;;
61739;SDS011;47645;45.288;12.038;2023-03-11T16:31:33;28.9;;;18.2;;
61739;SDS011;47645;45.288;12.038;2023-03-11T16:41:35;32.7;;;21.4;;
61739;SDS011;47645;45.288;12.038;2023-03-11T16:51:33;26.2;;;17.0;;
61739;SDS011;47645;45.288;12.038;2023-03-11T17:01:38;27.6;;;17.1;;
61739;SDS011;47645;45.288;12.038;2023-03-11T17:11:35;31.7;;;22.1;;
61739;SDS011;47645;45.288;12.038;2023-03-11T17:21:36;25.8;;;18.7;;
61739;SDS011;47645;45.288;12.038;2023-03-11T17:31:37;40.7;;;28.0;;
61739;SDS011;47645;45.288;12.038;2023-03-11T17:41:37;28.5;;;20.8;;
61739;SDS011;47645;45.288;12.038;2023-03-11T17:51:38;31.9;;;22.1;;
61739;SDS011;47645;45.288;12.038;2023-03-11T18:01:39;27.1;;;19.3;;
61739;SDS011;47645;45.288;12.038;2023-03-11T18:11:40;30.1;;;20.2;;
61739;SDS011;47645;45.288;12.038;2023-03-11T18:21:41;29.9;;;19.4;;
61739;SDS011;47645;45.288;12.038;2023-03-11T18:31:41;29.1;;;19.7;;
61739;SDS011;47645;45.288;12.038;2023-03-11T18:41:43;42.2;;;29.0;;
61739;SDS011;47645;45.288;12.038;2023-03-11T18:51:42;35.5;;;23.5;;
61739;SDS011;47645;45.288;12.038;2023-03-11T19:01:44;28.1;;;19.4;;
61739;SDS011;47645;45.288;12.038;2023-03-11T19:11:44;32.9;;;22.5;;
61739;SDS011;47645;45.288;12.038;2023-03-11T19:21:46;22.7;;;16.2;;
61739;SDS011;47645;45.288;12.038;2023-03-11T19:31:45;35.8;;;22.9;;
61739;SDS011;47645;45.288;12.038;2023-03-11T19:41:46;31.4;;;21.6;;
61739;SDS011;47645;45.288;12.038;2023-03-11T19:51:46;26.3;;;15.7;;
61739;SDS011;47645;45.288;12.038;2023-03-11T20:01:48;23.6;;;14.9;;
61739;SDS011;47645;45.288;12.038;2023-03-11T20:11:47;26.1;;;14.5;;
61739;SDS011;47645;45.288;12.038;2023-03-11T20:21:48;24.3;;;13.9;;
61739;SDS011;47645;45.288;12.038;2023-03-11T20:31:49;29.2;;;15.4;;
61739;SDS011;47645;45.288;12.038;2023-03-11T20:41:49;24.0;;;14.9;;
61739;SDS011;47645;45.288;12.038;2023-03-11T20:51:50;31.1;;;16.3;;
61739;SDS011;47645;45.288;12.038;2023-03-11T21:01:51;30.0;;;17.1;;
61739;SDS011;47645;45.288;12.038;2023-03-11T21:11:52;30.6;;;16.6;;
61739;SDS011;47645;45.288;12.038;2023-03-11T21:21:53;23.6;;;14.2;;
61739;SDS011;47645;45.288;12.038;2023-03-11T21:31:53;21.8;;;12.1;;
61739;SDS011;47645;45.288;12.038;2023-03-11T21:41:55;15.3;;;8.5;;
61739;SDS011;47645;45.288;12.038;2023-03-11T21:51:54;7.1;;;3.8;;
61739;SDS011;47645;45.288;12.038;2023-03-11T22:02:00;5.3;;;2.5;;
61739;SDS011;47645;45.288;12.038;2023-03-11T22:11:57;5.9;;;2.5;;
61739;SDS011;47645;45.288;12.038;2023-03-11T22:21:58;3.6;;;1.6;;
61739;SDS011;47645;45.288;12.038;2023-03-11T22:31:58;8.2;;;2.9;;
61739;SDS011;47645;45.288;12.038;2023-03-11T22:41:58;2.7;;;1.3;;
61739;SDS011;47645;45.288;12.038;2023-03-11T22:52:01;3.5;;;1.4;;
61739;SDS011;47645;45.288;12.038;2023-03-11T23:01:59;4.7;;;2.4;;
61739;SDS011;47645;45.288;12.038;2023-03-11T23:12:03;8.9;;;3.5;;
61739;SDS011;47645;45.288;12.038;2023-03-11T23:22:00;11.6;;;4.3;;
61739;SDS011;47645;45.288;12.038;2023-03-11T23:32:03;10.3;;;3.4;;
61739;SDS011;47645;45.288;12.038;2023-03-11T23:42:02;6.1;;;2.7;;
61739;SDS011;47645;45.288;12.038;2023-03-11T23:52:01;6.5;;;2.5;;
